createdAt,value
2018-04-16T00:00:52.917Z,67.46
2018-04-16T00:01:53.493Z,65.11
2018-04-16T00:02:54.063Z,67.78
2018-04-16T00:03:54.641Z,71.67
2018-04-16T00:04:55.212Z,72.53
2018-04-16T00:05:55.795Z,62.59
2018-04-16T00:06:56.361Z,62.21
2018-04-16T00:07:56.937Z,63.48
2018-04-16T00:08:57.510Z,76.86
2018-04-16T00:09:58.095Z,74.91
2018-04-16T00:10:58.669Z,63.73
2018-04-16T00:11:59.244Z,67.30
2018-04-16T00:12:59.819Z,64.72
2018-04-16T00:14:00.392Z,69.27
2018-04-16T00:15:00.964Z,73.77
2018-04-16T00:16:01.539Z,61.92
2018-04-16T00:17:02.120Z,68.90
2018-04-16T00:18:02.695Z,62.87
2018-04-16T00:19:03.268Z,67.55
2018-04-16T00:20:03.842Z,59.91
2018-04-16T00:21:04.416Z,68.67
2018-04-16T00:22:04.988Z,65.71
2018-04-16T00:23:05.565Z,62.75
2018-04-16T00:24:06.145Z,61.51
2018-04-16T00:25:06.720Z,58.26
2018-04-16T00:26:07.294Z,62.27
2018-04-16T00:27:07.867Z,57.59
2018-04-16T00:28:08.439Z,58.10
2018-04-16T00:29:09.012Z,71.63
2018-04-16T00:30:09.587Z,70.39
2018-04-16T00:31:10.160Z,71.72
2018-04-16T00:32:10.736Z,63.32
2018-04-16T00:33:11.320Z,72.01
2018-04-16T00:34:11.893Z,65.45
2018-04-16T00:35:12.466Z,67.08
2018-04-16T00:36:13.040Z,62.68
2018-04-16T00:37:13.623Z,74.02
2018-04-16T00:38:14.198Z,69.91
2018-04-16T00:39:14.772Z,60.77
2018-04-16T00:40:15.344Z,66.13
2018-04-16T00:41:15.916Z,71.25
2018-04-16T00:42:16.489Z,66.56
2018-04-16T00:43:17.063Z,60.49
2018-04-16T00:44:17.647Z,61.54
2018-04-16T00:45:18.232Z,65.42
2018-04-16T00:46:18.805Z,64.50
2018-04-16T00:47:19.380Z,69.15
2018-04-16T00:48:19.954Z,65.80
2018-04-16T00:49:20.527Z,60.64
2018-04-16T00:50:21.103Z,60.93
2018-04-16T00:51:21.672Z,64.94
2018-04-16T00:52:22.248Z,71.34
2018-04-16T00:53:22.818Z,64.85
2018-04-16T00:54:23.393Z,60.74
2018-04-16T00:55:23.965Z,66.19
2018-04-16T00:56:24.540Z,56.06
2018-04-16T00:57:25.112Z,70.01
2018-04-16T00:58:25.687Z,65.42
2018-04-16T00:59:26.270Z,58.36
2018-04-16T01:00:26.845Z,62.75
2018-04-16T01:01:27.468Z,61.25
2018-04-16T01:02:27.991Z,75.26
2018-04-16T01:03:28.567Z,74.49
2018-04-16T01:04:29.150Z,72.20
2018-04-16T01:05:29.724Z,73.03
2018-04-16T01:06:30.298Z,61.60
2018-04-16T01:07:30.870Z,65.71
2018-04-16T01:08:31.444Z,60.27
2018-04-16T01:09:32.017Z,64.18
2018-04-16T01:10:32.593Z,63.07
2018-04-16T01:11:33.160Z,66.60
2018-04-16T01:12:33.734Z,64.69
2018-04-16T01:13:34.312Z,67.43
2018-04-16T01:14:34.890Z,66.85
2018-04-16T01:15:35.465Z,66.56
2018-04-16T01:16:36.038Z,59.12
2018-04-16T01:17:36.610Z,67.62
2018-04-16T01:18:37.183Z,60.27
2018-04-16T01:19:37.757Z,64.75
2018-04-16T01:20:38.328Z,66.09
2018-04-16T01:21:38.901Z,70.29
2018-04-16T01:22:39.479Z,63.23
2018-04-16T01:23:40.052Z,68.57
2018-04-16T01:24:40.633Z,65.42
2018-04-16T01:25:41.205Z,64.15
2018-04-16T01:26:41.781Z,69.21
2018-04-16T01:27:42.351Z,60.27
2018-04-16T01:28:42.926Z,67.58
2018-04-16T01:29:43.501Z,58.61
2018-04-16T01:30:44.084Z,62.71
2018-04-16T01:31:44.657Z,60.24
2018-04-16T01:32:46.643Z,60.04
2018-04-16T01:33:47.215Z,60.24
2018-04-16T01:34:47.793Z,55.75
2018-04-16T01:35:48.361Z,53.29
2018-04-16T01:36:48.933Z,58.07
2018-04-16T01:37:49.506Z,69.11
2018-04-16T01:38:50.078Z,71.12
2018-04-16T01:39:50.651Z,68.63
2018-04-16T01:40:51.224Z,59.95
2018-04-16T01:41:51.795Z,64.62
2018-04-16T01:42:52.370Z,63.48
2018-04-16T01:43:52.939Z,65.48
2018-04-16T01:44:53.511Z,68.54
2018-04-16T01:45:54.094Z,69.97
2018-04-16T01:46:54.677Z,65.83
2018-04-16T01:47:55.250Z,58.51
2018-04-16T01:48:55.824Z,63.45
2018-04-16T01:49:56.397Z,60.11
2018-04-16T01:50:56.971Z,64.69
2018-04-16T01:51:57.543Z,64.21
2018-04-16T01:52:58.117Z,66.98
2018-04-16T01:53:58.688Z,68.51
2018-04-16T01:54:59.262Z,61.76
2018-04-16T01:55:59.833Z,66.25
2018-04-16T01:57:00.417Z,70.51
2018-04-16T01:58:00.998Z,69.17
2018-04-16T01:59:01.578Z,68.88
2018-04-16T02:00:02.141Z,70.51
2018-04-16T02:01:02.712Z,71.66
2018-04-16T02:02:03.283Z,66.63
2018-04-16T02:03:03.855Z,73.41
2018-04-16T02:04:04.436Z,73.88
2018-04-16T02:05:05.010Z,72.64
2018-04-16T02:06:05.581Z,74.46
2018-04-16T02:07:06.155Z,75.13
2018-04-16T02:08:06.729Z,76.27
2018-04-16T02:09:07.301Z,76.75
2018-04-16T02:10:07.870Z,77.13
2018-04-16T02:11:08.440Z,75.79
2018-04-16T02:12:09.025Z,76.08
2018-04-16T02:13:09.598Z,75.70
2018-04-16T02:14:10.170Z,76.84
2018-04-16T02:15:10.742Z,77.61
2018-04-16T02:16:11.315Z,77.13
2018-04-16T02:17:11.890Z,77.70
2018-04-16T02:18:12.458Z,78.37
2018-04-16T02:19:13.030Z,78.47
2018-04-16T02:20:13.602Z,78.28
2018-04-16T02:21:14.175Z,78.56
2018-04-16T02:22:14.748Z,78.37
2018-04-16T02:23:15.317Z,78.09
2018-04-16T02:24:15.893Z,76.94
2018-04-16T02:25:16.473Z,76.37
2018-04-16T02:26:17.044Z,77.23
2018-04-16T02:27:17.615Z,77.13
2018-04-16T02:28:18.187Z,78.89
2018-04-16T02:29:18.759Z,78.41
2018-04-16T02:30:19.331Z,78.22
2018-04-16T02:31:19.902Z,78.09
2018-04-16T02:32:20.474Z,78.28
2018-04-16T02:33:21.046Z,77.89
2018-04-16T02:34:21.616Z,78.56
2018-04-16T02:35:22.188Z,78.37
2018-04-16T02:36:22.769Z,78.18
2018-04-16T02:37:23.351Z,78.51
2018-04-16T02:38:23.934Z,77.94
2018-04-16T02:39:24.507Z,77.80
2018-04-16T02:40:25.077Z,78.31
2018-04-16T02:41:25.651Z,78.12
2018-04-16T02:42:26.231Z,77.51
2018-04-16T02:43:26.793Z,78.22
2018-04-16T02:44:27.365Z,77.94
2018-04-16T02:45:27.940Z,76.79
2018-04-16T02:46:28.517Z,76.98
2018-04-16T02:47:29.088Z,77.45
2018-04-16T02:48:29.661Z,76.79
2018-04-16T02:49:30.237Z,77.08
2018-04-16T02:50:30.805Z,76.50
2018-04-16T02:51:31.377Z,75.79
2018-04-16T02:52:31.950Z,74.84
2018-04-16T02:53:32.522Z,75.45
2018-04-16T02:54:33.104Z,75.35
2018-04-16T02:55:33.678Z,75.32
2018-04-16T02:56:34.258Z,75.83
2018-04-16T02:57:34.829Z,75.74
2018-04-16T02:58:35.400Z,76.40
2018-04-16T02:59:35.977Z,77.65
2018-04-16T03:00:36.554Z,77.84
2018-04-16T03:01:37.126Z,77.26
2018-04-16T03:02:37.698Z,77.26
2018-04-16T03:03:38.269Z,77.74
2018-04-16T03:04:38.842Z,77.65
2018-04-16T03:05:39.431Z,77.17
2018-04-16T03:06:39.997Z,76.08
2018-04-16T03:07:40.570Z,76.31
2018-04-16T03:08:41.155Z,75.98
2018-04-16T03:09:41.725Z,76.60
2018-04-16T03:10:42.299Z,76.18
2018-04-16T03:11:42.870Z,76.79
2018-04-16T03:12:43.443Z,76.94
2018-04-16T03:13:44.044Z,75.70
2018-04-16T03:14:44.589Z,75.42
2018-04-16T03:15:45.162Z,75.42
2018-04-16T03:16:45.731Z,75.70
2018-04-16T03:17:46.314Z,75.32
2018-04-16T03:18:46.886Z,75.32
2018-04-16T03:19:47.460Z,74.46
2018-04-16T03:20:48.032Z,74.65
2018-04-16T03:21:48.605Z,73.69
2018-04-16T03:22:49.176Z,74.27
2018-04-16T03:23:49.750Z,73.98
2018-04-16T03:24:50.330Z,72.83
2018-04-16T03:25:50.903Z,74.37
2018-04-16T03:26:51.476Z,74.37
2018-04-16T03:27:52.049Z,73.41
2018-04-16T03:28:52.629Z,73.98
2018-04-16T03:29:53.201Z,74.37
2018-04-16T03:30:53.773Z,73.79
2018-04-16T03:31:54.345Z,74.27
2018-04-16T03:32:54.918Z,73.60
2018-04-16T03:33:55.499Z,73.41
2018-04-16T03:34:56.070Z,73.79
2018-04-16T03:35:56.643Z,73.79
2018-04-16T03:36:57.212Z,73.41
2018-04-16T03:37:57.784Z,72.74
2018-04-16T03:38:58.366Z,72.83
2018-04-16T03:39:58.938Z,73.79
2018-04-16T03:40:59.515Z,72.93
2018-04-16T03:42:00.084Z,72.93
2018-04-16T03:43:00.656Z,72.64
2018-04-16T03:44:01.226Z,71.98
2018-04-16T03:45:01.804Z,71.98
2018-04-16T03:46:02.370Z,72.64
2018-04-16T03:47:02.941Z,71.98
2018-04-16T03:48:03.512Z,71.50
2018-04-16T03:49:04.084Z,70.64
2018-04-16T03:50:04.656Z,70.64
2018-04-16T03:51:05.226Z,70.92
2018-04-16T03:52:05.798Z,71.02
2018-04-16T03:53:06.369Z,70.26
2018-04-16T03:54:06.951Z,69.97
2018-04-16T03:55:07.523Z,70.26
2018-04-16T03:56:08.095Z,69.78
2018-04-16T03:57:08.668Z,69.31
2018-04-16T03:58:09.237Z,69.27
2018-04-16T03:59:09.812Z,68.41
2018-04-16T04:00:10.385Z,68.92
2018-04-16T04:01:10.974Z,69.17
2018-04-16T04:02:11.534Z,68.98
2018-04-16T04:03:12.105Z,68.60
2018-04-16T04:04:12.677Z,68.60
2018-04-16T04:05:13.247Z,64.25
2018-04-16T04:06:13.817Z,67.01
2018-04-16T04:07:14.389Z,68.12
2018-04-16T04:08:14.959Z,67.07
2018-04-16T04:09:15.531Z,66.12
2018-04-16T04:10:16.113Z,66.88
2018-04-16T04:11:16.685Z,68.79
2018-04-16T04:12:17.259Z,65.83
2018-04-16T04:13:17.829Z,62.05
2018-04-16T04:14:18.403Z,68.32
2018-04-16T04:15:18.973Z,68.22
2018-04-16T04:16:19.545Z,67.27
2018-04-16T04:17:20.116Z,66.50
2018-04-16T04:18:20.687Z,61.86
2018-04-16T04:19:21.269Z,59.47
2018-04-16T04:20:21.842Z,69.08
2018-04-16T04:21:22.415Z,66.98
2018-04-16T04:22:22.986Z,66.60
2018-04-16T04:23:23.558Z,61.76
2018-04-16T04:24:24.129Z,64.78
2018-04-16T04:25:24.701Z,61.86
2018-04-16T04:26:25.271Z,64.78
2018-04-16T04:27:25.846Z,66.41
2018-04-16T04:28:26.425Z,64.69
2018-04-16T04:29:26.997Z,64.88
2018-04-16T04:30:27.570Z,57.37
2018-04-16T04:31:28.151Z,65.48
2018-04-16T04:32:28.735Z,61.66
2018-04-16T04:33:29.309Z,66.12
2018-04-16T04:34:29.880Z,63.92
2018-04-16T04:35:30.452Z,56.99
2018-04-16T04:36:31.026Z,68.88
2018-04-16T04:37:31.597Z,60.87
2018-04-16T04:38:32.173Z,61.63
2018-04-16T04:39:32.746Z,62.30
2018-04-16T04:40:33.327Z,61.63
2018-04-16T04:41:33.899Z,52.67
2018-04-16T04:42:34.472Z,56.96
2018-04-16T04:43:35.045Z,59.44
2018-04-16T04:44:35.617Z,63.42
2018-04-16T04:45:36.195Z,59.41
2018-04-16T04:46:36.777Z,57.41
2018-04-16T04:47:37.359Z,57.31
2018-04-16T04:48:37.960Z,51.59
2018-04-16T04:49:38.515Z,51.40
2018-04-16T04:50:39.089Z,54.38
2018-04-16T04:51:39.663Z,62.37
2018-04-16T04:52:40.235Z,54.19
2018-04-16T04:53:40.808Z,60.55
2018-04-16T04:54:41.380Z,59.70
2018-04-16T04:55:41.954Z,57.06
2018-04-16T04:56:42.526Z,62.65
2018-04-16T04:57:43.099Z,54.10
2018-04-16T04:58:43.673Z,64.02
2018-04-16T04:59:44.247Z,61.44
2018-04-16T05:00:44.821Z,55.82
2018-04-16T05:01:45.393Z,55.34
2018-04-16T05:02:45.966Z,63.83
2018-04-16T05:03:46.539Z,54.10
2018-04-16T05:04:47.111Z,60.58
2018-04-16T05:05:47.685Z,55.05
2018-04-16T05:06:48.259Z,52.95
2018-04-16T05:07:48.832Z,57.43
2018-04-16T05:08:49.405Z,67.04
2018-04-16T05:09:49.985Z,58.65
2018-04-16T05:10:50.562Z,59.03
2018-04-16T05:11:51.134Z,52.55
2018-04-16T05:12:51.708Z,57.22
2018-04-16T05:13:52.279Z,48.44
2018-04-16T05:14:52.852Z,52.16
2018-04-16T05:15:53.425Z,53.05
2018-04-16T05:16:54.001Z,59.73
2018-04-16T05:17:54.571Z,60.84
2018-04-16T05:18:55.144Z,57.41
2018-04-16T05:19:55.719Z,51.31
2018-04-16T05:20:56.292Z,58.26
2018-04-16T05:21:56.866Z,61.51
2018-04-16T05:22:57.440Z,57.70
2018-04-16T05:23:58.012Z,56.46
2018-04-16T05:24:58.591Z,48.54
2018-04-16T05:25:59.168Z,52.45
2018-04-16T05:26:59.742Z,53.33
2018-04-16T05:28:00.316Z,55.53
2018-04-16T05:29:00.903Z,53.21
2018-04-16T05:30:01.481Z,56.93
2018-04-16T05:31:02.058Z,55.21
2018-04-16T05:32:02.633Z,51.78
2018-04-16T05:33:03.208Z,55.05
2018-04-16T05:34:03.783Z,58.07
2018-04-16T05:35:04.359Z,57.82
2018-04-16T05:36:04.934Z,53.81
2018-04-16T05:37:05.509Z,55.24
2018-04-16T05:38:06.082Z,59.16
2018-04-16T05:39:06.656Z,58.11
2018-04-16T05:40:07.232Z,58.20
2018-04-16T05:41:07.808Z,58.01
2018-04-16T05:42:08.382Z,57.92
2018-04-16T05:43:08.956Z,59.06
2018-04-16T05:44:09.531Z,58.23
2018-04-16T05:45:10.109Z,59.47
2018-04-16T05:46:10.684Z,60.71
2018-04-16T05:47:11.258Z,60.24
2018-04-16T05:48:11.832Z,58.61
2018-04-16T05:49:12.430Z,62.24
2018-04-16T05:50:12.980Z,60.04
2018-04-16T05:51:13.556Z,59.85
2018-04-16T05:52:14.130Z,57.18
2018-04-16T05:53:14.705Z,60.61
2018-04-16T05:54:15.291Z,58.99
2018-04-16T05:55:15.864Z,59.19
2018-04-16T05:56:16.439Z,59.09
2018-04-16T05:57:17.013Z,58.99
2018-04-16T05:58:17.589Z,60.52
2018-04-16T05:59:18.173Z,61.76
2018-04-16T06:00:18.798Z,59.76
2018-04-16T06:01:19.336Z,59.09
2018-04-16T06:02:19.912Z,60.24
2018-04-16T06:03:20.492Z,58.61
2018-04-16T06:04:21.062Z,58.70
2018-04-16T06:05:21.636Z,60.14
2018-04-16T06:06:22.211Z,60.24
2018-04-16T06:07:22.787Z,58.04
2018-04-16T06:08:23.363Z,55.40
2018-04-16T06:09:23.949Z,59.41
2018-04-16T06:10:24.538Z,59.12
2018-04-16T06:11:25.109Z,63.03
2018-04-16T06:12:25.687Z,63.99
2018-04-16T06:13:26.273Z,57.11
2018-04-16T06:14:26.852Z,59.69
2018-04-16T06:15:27.436Z,63.99
2018-04-16T06:16:28.013Z,58.83
2018-04-16T06:17:28.586Z,61.60
2018-04-16T06:18:29.161Z,63.03
2018-04-16T06:19:29.736Z,67.05
2018-04-16T06:20:30.320Z,65.90
2018-04-16T06:21:30.896Z,65.23
2018-04-16T06:22:31.471Z,64.18
2018-04-16T06:23:32.047Z,61.51
2018-04-16T06:24:32.622Z,62.01
2018-04-16T06:25:33.209Z,69.56
2018-04-16T06:26:33.785Z,67.81
2018-04-16T06:27:34.361Z,64.56
2018-04-16T06:28:34.936Z,62.27
2018-04-16T06:29:35.511Z,62.37
2018-04-16T06:30:36.093Z,61.13
2018-04-16T06:31:36.677Z,58.51
2018-04-16T06:32:37.248Z,57.75
2018-04-16T06:33:37.825Z,57.68
2018-04-16T06:34:38.400Z,57.94
2018-04-16T06:35:38.975Z,54.89
2018-04-16T06:36:39.551Z,54.13
2018-04-16T06:37:40.127Z,56.25
2018-04-16T06:38:40.702Z,56.63
2018-04-16T06:39:41.276Z,57.87
2018-04-16T06:40:41.851Z,56.54
2018-04-16T06:41:42.428Z,55.49
2018-04-16T06:42:43.014Z,56.45
2018-04-16T06:43:43.593Z,55.77
2018-04-16T06:44:44.179Z,55.77
2018-04-16T06:45:44.750Z,56.25
2018-04-16T06:46:45.325Z,54.82
2018-04-16T06:47:45.902Z,57.78
2018-04-16T06:48:46.477Z,56.54
2018-04-16T06:49:47.051Z,57.68
2018-04-16T06:50:47.638Z,56.45
2018-04-16T06:51:48.213Z,57.11
2018-04-16T06:52:48.787Z,58.45
2018-04-16T06:53:49.363Z,55.68
2018-04-16T06:54:49.939Z,58.45
2018-04-16T06:55:50.514Z,59.78
2018-04-16T06:56:51.089Z,59.24
2018-04-16T06:57:51.675Z,61.22
2018-04-16T06:58:52.251Z,60.17
2018-04-16T06:59:52.827Z,58.83
2018-04-16T07:00:53.416Z,59.81
2018-04-16T07:01:54.075Z,61.03
2018-04-16T07:02:54.588Z,60.93
2018-04-16T07:03:55.174Z,61.32
2018-04-16T07:04:55.759Z,59.59
2018-04-16T07:05:56.335Z,60.46
2018-04-16T07:06:56.920Z,60.77
2018-04-16T07:07:57.495Z,60.27
2018-04-16T07:08:58.083Z,62.01
2018-04-16T07:09:58.655Z,64.12
2018-04-16T07:10:59.230Z,62.49
2018-04-16T07:11:59.805Z,61.35
2018-04-16T07:13:00.380Z,65.36
2018-04-16T07:14:00.959Z,63.93
2018-04-16T07:15:01.546Z,61.54
2018-04-16T07:16:02.143Z,65.36
2018-04-16T07:17:02.705Z,62.78
2018-04-16T07:18:03.291Z,64.02
2018-04-16T07:19:03.864Z,62.97
2018-04-16T07:20:04.440Z,62.40
2018-04-16T07:21:05.021Z,64.78
2018-04-16T07:22:05.604Z,65.74
2018-04-16T07:23:06.180Z,64.59
2018-04-16T07:24:06.757Z,63.83
2018-04-16T07:25:07.329Z,64.09
2018-04-16T07:26:07.912Z,64.85
2018-04-16T07:27:08.484Z,63.45
2018-04-16T07:28:09.057Z,62.40
2018-04-16T07:29:09.636Z,62.11
2018-04-16T07:30:10.208Z,61.92
2018-04-16T07:31:10.784Z,62.30
2018-04-16T07:32:11.361Z,62.59
2018-04-16T07:33:11.936Z,62.59
2018-04-16T07:34:12.524Z,63.35
2018-04-16T07:35:13.106Z,65.26
2018-04-16T07:36:13.684Z,65.36
2018-04-16T07:37:14.260Z,64.40
2018-04-16T07:38:14.836Z,64.59
2018-04-16T07:39:15.410Z,65.74
2018-04-16T07:40:15.988Z,65.74
2018-04-16T07:41:16.561Z,65.26
2018-04-16T07:42:17.136Z,64.88
2018-04-16T07:43:17.711Z,67.65
2018-04-16T07:44:18.287Z,69.37
2018-04-16T07:45:18.861Z,69.18
2018-04-16T07:46:19.438Z,70.52
2018-04-16T07:47:20.015Z,69.85
2018-04-16T07:48:20.592Z,70.33
2018-04-16T07:49:21.166Z,70.33
2018-04-16T07:50:21.743Z,71.57
2018-04-16T07:51:22.319Z,74.44
2018-04-16T07:52:22.893Z,74.85
2018-04-16T07:53:23.469Z,75.52
2018-04-16T07:54:24.042Z,76.10
2018-04-16T07:55:24.618Z,76.29
2018-04-16T07:56:25.194Z,76.20
2018-04-16T07:57:25.770Z,75.66
2018-04-16T07:58:26.344Z,74.38
2018-04-16T07:59:26.919Z,75.66
2018-04-16T08:00:27.496Z,74.99
2018-04-16T08:01:28.106Z,78.53
2018-04-16T08:02:28.647Z,77.57
2018-04-16T08:03:29.225Z,79.20
2018-04-16T08:04:29.798Z,78.24
2018-04-16T08:05:30.375Z,81.21
2018-04-16T08:06:30.960Z,81.97
2018-04-16T08:14:54.162Z,82.74
2018-04-16T08:15:54.740Z,81.59
2018-04-16T08:16:55.327Z,80.63
2018-04-16T08:17:55.902Z,81.30
2018-04-16T08:18:56.478Z,81.59
2018-04-16T08:19:57.055Z,85.17
2018-04-16T08:20:57.633Z,84.79
2018-04-16T08:21:58.209Z,86.08
2018-04-16T08:22:58.796Z,87.81
2018-04-16T08:23:59.372Z,86.70
2018-04-16T08:24:59.948Z,87.56
2018-04-16T08:26:00.524Z,86.41
2018-04-16T08:27:01.109Z,85.55
2018-04-16T08:28:01.696Z,86.66
2018-04-16T08:29:02.274Z,86.41
2018-04-16T08:30:02.851Z,86.13
2018-04-16T08:31:03.429Z,86.04
2018-04-16T08:32:04.006Z,85.31
2018-04-16T08:33:04.582Z,86.27
2018-04-16T08:34:05.162Z,87.51
2018-04-16T08:35:05.733Z,88.09
2018-04-16T08:36:06.311Z,87.51
2018-04-16T08:37:06.886Z,86.27
2018-04-16T08:38:07.463Z,91.30
2018-04-16T08:39:08.041Z,90.72
2018-04-16T08:40:08.625Z,89.58
2018-04-16T08:41:09.201Z,90.29
2018-04-16T08:42:09.777Z,90.29
2018-04-16T08:43:10.354Z,88.62
2018-04-16T08:44:10.932Z,86.36
2018-04-16T08:45:11.508Z,89.86
2018-04-16T08:46:12.098Z,88.28
2018-04-16T08:47:12.674Z,90.39
2018-04-16T08:48:13.250Z,91.92
2018-04-16T08:49:13.828Z,91.53
2018-04-16T08:50:14.414Z,89.04
2018-04-16T08:51:14.992Z,89.14
2018-04-16T08:52:15.576Z,90.00
2018-04-16T08:53:16.151Z,88.76
2018-04-16T08:54:16.726Z,88.04
2018-04-16T08:55:17.304Z,89.52
2018-04-16T08:56:17.882Z,88.28
2018-04-16T08:57:18.458Z,87.70
2018-04-16T08:58:19.037Z,91.92
2018-04-16T08:59:19.612Z,90.58
2018-04-16T09:00:20.189Z,89.76
2018-04-16T09:01:20.768Z,90.67
2018-04-16T09:02:21.344Z,90.29
2018-04-16T09:03:21.919Z,91.15
2018-04-16T09:04:22.497Z,90.39
2018-04-16T09:05:23.073Z,91.86
2018-04-16T09:06:23.649Z,89.47
2018-04-16T09:07:24.225Z,90.14
2018-04-16T09:08:24.801Z,89.66
2018-04-16T09:09:25.381Z,89.09
2018-04-16T09:10:25.968Z,89.37
2018-04-16T09:11:26.546Z,86.98
2018-04-16T09:12:27.123Z,88.90
2018-04-16T09:13:27.711Z,90.62
2018-04-16T09:14:28.292Z,90.58
2018-04-16T09:15:28.867Z,89.52
2018-04-16T09:16:29.445Z,89.37
2018-04-16T09:17:30.022Z,92.54
2018-04-16T09:18:30.600Z,92.92
2018-04-16T09:19:31.177Z,92.44
2018-04-16T09:20:31.753Z,92.11
2018-04-16T09:21:32.329Z,90.58
2018-04-16T09:22:32.909Z,91.53
2018-04-16T09:23:33.487Z,89.43
2018-04-16T09:24:34.064Z,89.23
2018-04-16T09:25:34.639Z,89.23
2018-04-16T09:26:35.218Z,91.34
2018-04-16T09:27:35.833Z,90.91
2018-04-16T09:28:36.370Z,92.15
2018-04-16T09:29:36.946Z,92.15
2018-04-16T09:30:37.534Z,92.92
2018-04-16T09:31:38.111Z,91.86
2018-04-16T09:32:38.687Z,93.73
2018-04-16T09:33:39.265Z,93.06
2018-04-16T09:34:39.844Z,94.31
2018-04-16T09:35:40.422Z,92.35
2018-04-16T09:36:41.010Z,92.82
2018-04-16T09:37:41.588Z,92.06
2018-04-16T09:38:42.163Z,93.30
2018-04-16T09:39:42.740Z,92.15
2018-04-16T09:40:43.320Z,93.69
2018-04-16T09:41:43.897Z,91.96
2018-04-16T09:42:44.474Z,93.06
2018-04-16T09:43:45.051Z,94.79
2018-04-16T09:44:45.627Z,96.70
2018-04-16T09:45:46.205Z,92.25
2018-04-16T09:46:46.783Z,94.40
2018-04-16T09:47:47.361Z,93.83
2018-04-16T09:48:47.940Z,93.44
2018-04-16T09:49:48.516Z,95.46
2018-04-16T09:50:49.094Z,94.12
2018-04-16T09:51:49.671Z,93.93
2018-04-16T09:52:50.246Z,93.63
2018-04-16T09:53:50.825Z,92.44
2018-04-16T09:54:51.403Z,91.24
2018-04-16T09:55:52.010Z,94.50
2018-04-16T09:56:52.559Z,93.26
2018-04-16T09:57:53.138Z,95.46
2018-04-16T09:58:53.717Z,93.98
2018-04-16T09:59:54.293Z,95.60
2018-04-16T10:00:54.891Z,93.93
2018-04-16T10:01:55.459Z,94.17
2018-04-16T10:02:56.030Z,94.93
2018-04-16T10:03:56.607Z,98.77
2018-04-16T10:04:57.183Z,96.80
2018-04-16T10:05:57.765Z,98.00
2018-04-16T10:06:58.339Z,96.89
2018-04-16T10:07:58.928Z,96.42
2018-04-16T10:08:59.506Z,96.56
2018-04-16T10:10:00.083Z,97.71
2018-04-16T10:11:00.672Z,97.09
2018-04-16T10:12:01.249Z,96.75
2018-04-16T10:13:01.826Z,98.48
2018-04-16T10:14:02.403Z,97.71
2018-04-16T10:15:02.981Z,96.85
2018-04-16T10:16:03.562Z,99.39
2018-04-16T10:17:04.139Z,97.56
2018-04-16T10:18:04.731Z,99.29
2018-04-16T10:19:05.306Z,97.95
2018-04-16T10:20:05.883Z,96.89
2018-04-16T10:21:06.462Z,96.89
2018-04-16T10:22:07.042Z,98.53
2018-04-16T10:23:07.621Z,97.66
2018-04-16T10:24:08.198Z,97.90
2018-04-16T10:25:08.777Z,96.08
2018-04-16T10:26:09.356Z,96.56
2018-04-16T10:27:09.934Z,97.71
2018-04-16T10:28:10.525Z,97.76
2018-04-16T10:29:11.111Z,97.76
2018-04-16T10:30:11.688Z,96.42
2018-04-16T10:31:12.267Z,96.75
2018-04-16T10:32:12.844Z,96.94
2018-04-16T10:33:13.421Z,96.66
2018-04-16T10:34:14.016Z,96.85
2018-04-16T10:35:14.589Z,96.08
2018-04-16T10:36:15.167Z,97.18
2018-04-16T10:37:15.748Z,97.47
2018-04-16T10:38:16.337Z,96.61
2018-04-16T10:39:16.924Z,96.70
2018-04-16T10:40:17.501Z,97.42
2018-04-16T10:41:18.084Z,96.85
2018-04-16T10:42:18.659Z,97.14
2018-04-16T10:43:19.236Z,96.08
2018-04-16T10:44:19.812Z,97.81
2018-04-16T10:45:20.391Z,96.37
2018-04-16T10:46:20.972Z,96.89
2018-04-16T10:47:21.548Z,96.89
2018-04-16T10:48:22.126Z,97.66
2018-04-16T10:49:22.704Z,96.70
2018-04-16T10:50:23.283Z,96.42
2018-04-16T10:51:23.862Z,96.80
2018-04-16T10:52:24.439Z,97.56
2018-04-16T10:53:25.017Z,96.08
2018-04-16T10:54:25.597Z,96.75
2018-04-16T10:55:26.177Z,96.99
2018-04-16T10:56:26.750Z,96.80
2018-04-16T10:57:27.325Z,96.61
2018-04-16T10:58:27.904Z,94.17
2018-04-16T10:59:28.483Z,95.94
2018-04-16T11:00:29.061Z,96.85
2018-04-16T11:01:29.637Z,96.75
2018-04-16T11:02:30.214Z,98.24
2018-04-16T11:03:30.792Z,96.94
2018-04-16T11:04:31.372Z,96.70
2018-04-16T11:05:31.949Z,97.33
2018-04-16T11:06:32.526Z,95.98
2018-04-16T11:07:33.104Z,97.14
2018-04-16T11:08:33.682Z,96.47
2018-04-16T11:09:34.261Z,96.37
2018-04-16T11:10:34.838Z,96.51
2018-04-16T11:11:35.415Z,96.51
2018-04-16T11:12:35.994Z,96.42
2018-04-16T11:13:36.571Z,95.94
2018-04-16T11:14:37.150Z,96.51
2018-04-16T11:15:37.739Z,94.79
2018-04-16T11:16:38.317Z,96.70
2018-04-16T11:17:38.893Z,96.32
2018-04-16T11:18:39.469Z,96.27
2018-04-16T11:19:40.047Z,96.27
2018-04-16T11:20:40.628Z,96.94
2018-04-16T11:21:41.203Z,96.85
2018-04-16T11:22:41.782Z,97.09
2018-04-16T11:23:42.358Z,96.13
2018-04-16T11:24:42.937Z,95.46
2018-04-16T11:25:43.517Z,96.89
2018-04-16T11:26:44.094Z,95.03
2018-04-16T11:27:44.671Z,95.98
2018-04-16T11:28:45.250Z,95.70
2018-04-16T11:29:45.829Z,95.60
2018-04-16T11:30:46.407Z,95.51
2018-04-16T11:31:46.986Z,96.75
2018-04-16T11:32:47.563Z,95.70
2018-04-16T11:33:48.141Z,95.98
2018-04-16T11:34:48.718Z,94.74
2018-04-16T11:35:49.296Z,95.79
2018-04-16T11:36:49.874Z,96.51
2018-04-16T11:37:50.454Z,95.94
2018-04-16T11:38:51.034Z,95.70
2018-04-16T11:39:51.608Z,95.07
2018-04-16T11:40:52.197Z,94.83
2018-04-16T11:41:52.784Z,97.04
2018-04-16T11:42:53.363Z,95.65
2018-04-16T11:43:53.940Z,96.13
2018-04-16T11:44:54.520Z,96.03
2018-04-16T11:45:55.099Z,95.03
2018-04-16T11:46:55.685Z,96.61
2018-04-16T11:47:56.263Z,96.08
2018-04-16T11:48:56.839Z,95.89
2018-04-16T11:49:57.418Z,95.70
2018-04-16T11:50:58.001Z,96.75
2018-04-16T11:51:58.587Z,94.88
2018-04-16T11:52:59.175Z,94.79
2018-04-16T11:53:59.754Z,94.98
2018-04-16T11:55:00.334Z,96.56
2018-04-16T11:56:00.914Z,94.74
2018-04-16T11:57:01.490Z,94.74
2018-04-16T11:58:02.070Z,95.65
2018-04-16T11:59:02.660Z,96.56
2018-04-16T12:00:03.250Z,96.56
2018-04-16T12:01:03.828Z,95.94
2018-04-16T12:02:04.407Z,97.19
2018-04-16T12:03:04.984Z,96.80
2018-04-16T12:04:05.561Z,96.18
2018-04-16T12:05:06.139Z,95.98
2018-04-16T12:06:06.716Z,96.94
2018-04-16T12:07:07.296Z,94.79
2018-04-16T12:08:07.873Z,94.02
2018-04-16T12:09:08.452Z,94.59
2018-04-16T12:10:09.029Z,94.64
2018-04-16T12:11:09.607Z,94.79
2018-04-16T12:12:10.186Z,94.79
2018-04-16T12:13:10.763Z,96.85
2018-04-16T12:14:11.341Z,95.07
2018-04-16T12:15:11.921Z,94.74
2018-04-16T12:16:12.497Z,96.32
2018-04-16T12:17:13.077Z,94.69
2018-04-16T12:18:13.654Z,96.22
2018-04-16T12:19:14.231Z,96.13
2018-04-16T12:20:14.814Z,94.59
2018-04-16T12:21:15.388Z,95.17
2018-04-16T12:22:16.015Z,94.69
2018-04-16T12:23:16.545Z,95.75
2018-04-16T12:24:17.123Z,94.79
2018-04-16T12:25:17.714Z,94.12
2018-04-16T12:26:18.291Z,94.88
2018-04-16T12:27:18.880Z,95.03
2018-04-16T12:28:19.458Z,97.61
2018-04-16T12:29:20.038Z,96.75
2018-04-16T12:30:20.617Z,96.75
2018-04-16T12:31:21.195Z,96.85
2018-04-16T12:32:21.774Z,97.04
2018-04-16T12:33:22.353Z,96.75
2018-04-16T12:34:22.936Z,96.37
2018-04-16T12:35:23.524Z,95.94
2018-04-16T12:36:24.101Z,95.03
2018-04-16T12:37:24.720Z,95.98
2018-04-16T12:38:25.261Z,95.31
2018-04-16T12:39:25.839Z,96.08
2018-04-16T12:40:26.418Z,95.07
2018-04-16T12:41:26.998Z,94.78
2018-04-16T12:42:27.578Z,94.16
2018-04-16T12:43:28.158Z,94.98
2018-04-16T12:44:28.739Z,93.82
2018-04-16T12:45:29.315Z,93.54
2018-04-16T12:46:29.909Z,94.35
2018-04-16T12:47:30.483Z,93.05
2018-04-16T12:48:31.061Z,93.20
2018-04-16T12:49:31.642Z,94.26
2018-04-16T12:50:32.220Z,93.25
2018-04-16T12:51:32.800Z,94.26
2018-04-16T12:52:33.387Z,94.35
2018-04-16T12:53:33.966Z,95.17
2018-04-16T12:54:34.545Z,94.01
2018-04-16T12:55:35.126Z,94.16
2018-04-16T12:56:35.703Z,94.31
2018-04-16T12:57:36.281Z,94.21
2018-04-16T12:58:36.860Z,94.16
2018-04-16T12:59:37.440Z,94.45
2018-04-16T13:00:38.020Z,94.26
2018-04-16T13:01:38.612Z,94.93
2018-04-16T13:02:39.191Z,92.86
2018-04-16T13:03:39.770Z,90.22
2018-04-16T13:04:40.352Z,90.46
2018-04-16T13:05:40.942Z,90.99
2018-04-16T13:06:41.521Z,90.52
2018-04-16T13:07:42.101Z,89.94